This is the latest recevied weather packets stored in our database for station/object W8MRL. If no packets are shown the sender has not sent any weather packets the latest 1 day(s).
| Time | Temp. | Humidity | Pressure | Rain* | Wind** | Luminosity | Snow |
|---|---|---|---|---|---|---|---|
| 1836274688 | 20.56° C | 71% | 1020.7 hPa | 0 mm | 0 m/s | - | - |
| 1778043673 | 8.89° C | 95% | 1011.2 hPa | 6.1 mm | 0.89 m/s, 311° | - | - |
| 1778042751 | 8.89° C | 95% | 1010.7 hPa | 6.6 mm | 0.45 m/s, 4° | - | - |
| 1778041850 | 8.89° C | 95% | 1010.5 hPa | 6.1 mm | 0.45 m/s, 302° | - | - |
| 1778040958 | 9.44° C | 95% | 1010.8 hPa | 5.08 mm | 0.45 m/s, 27° | - | - |
| 1778040044 | 9.44° C | 95% | 1010.6 hPa | 3.81 mm | 0.89 m/s, 276° | - | - |
| 1778039150 | 10° C | 95% | 1010.6 hPa | 1.78 mm | 0.89 m/s, 57° | - | - |
| 1778038240 | 10° C | 95% | 1010.3 hPa | 0.76 mm | 0.89 m/s, 321° | - | - |
| 1778037339 | 10° C | 95% | 1010.1 hPa | 1.52 mm | 0.45 m/s, 281° | - | - |
| 1778036439 | 10° C | 95% | 1010.3 hPa | 2.03 mm | 0 m/s | - | - |
| 1778035537 | 10° C | 95% | 1010.7 hPa | 2.54 mm | 0 m/s | - | - |
| 1778034636 | 10° C | 94% | 1010.6 hPa | 3.05 mm | 0 m/s | - | - |
| 1778033732 | 10.56° C | 94% | 1011.2 hPa | 2.03 mm | 1.34 m/s, 281° | - | - |
| 1778032829 | 11.67° C | 93% | 1011.1 hPa | 2.29 mm | 0.45 m/s, 23° | - | - |
| 1778031925 | 13.33° C | 94% | 1011.1 hPa | 2.79 mm | 0.45 m/s, 8° | - | - |
| 1778031036 | 14.44° C | 96% | 1010.5 hPa | 2.54 mm | 0 m/s | - | - |
| 1778030128 | 15° C | 96% | 1010.5 hPa | 2.79 mm | 0 m/s | - | - |
| 1778029225 | 15° C | 96% | 1010.7 hPa | 2.29 mm | 0 m/s | - | - |
| 1778028322 | 15° C | 95% | 1010.8 hPa | 1.52 mm | 0 m/s | - | - |
| 1778027422 | 15° C | 96% | 1010.3 hPa | 1.52 mm | 0.45 m/s, 234° | - | - |
| 1778026521 | 15° C | 96% | 1010.2 hPa | 1.78 mm | 0 m/s | - | - |
| 1778025619 | 15.56° C | 96% | 1010.1 hPa | 2.03 mm | 0 m/s | - | - |
| 1778024719 | 15.56° C | 96% | 1010.2 hPa | 1.52 mm | 0.45 m/s, 212° | - | - |
| 1778023825 | 15.56° C | 96% | 1010.1 hPa | 1.52 mm | 0 m/s | - | - |
| 1778022918 | 15.56° C | 96% | 1010.4 hPa | 1.27 mm | 0 m/s | - | - |
* Rain latest hour (hover to see other rain measurements)
** Current wind speed in m/s (hover to see current wind gust speed)